Big Bear Station Historical Data
Daily Summary for April 20, 2019 Units:  English    Metric   Both
Next Day »
Daily Weekly Monthly Yearly Custom
  High: Low: Average:
Temperature: 63.0 °F 37.6 °F 48.5 °F
Dew Point: 34.6 °F 14.0 °F 26.7 °F
Humidity: 71% 18% 45%
Wind Speed: 8.9mph 0.0mph 2.1mph
Wind Gust: -999.0mph - -
Wind- - West
Pressure: 23.45 in 23.39 in -
Precipitation: 0.00 in    
Historical Graphs
 
 
Tabular Data for April 20, 2019
Time Temperature Dew Point Pressure Wind Wind Speed Wind Gust Humidity Rainfall Rate (Hourly)
00:04 46.8 °F 30.6 °F 23.45 in Calm   -999.0 mph 53% 0.00 in
00:19 47.1 °F 29.9 °F 23.44 in Calm   -999.0 mph 51% 0.00 in
00:34 46.8 °F 30.1 °F 23.44 in Calm   -999.0 mph 52% 0.00 in
00:49 46.6 °F 29.4 °F 23.44 in Calm   -999.0 mph 51% 0.00 in
01:04 46.2 °F 29.1 °F 23.43 in Calm   -999.0 mph 51% 0.00 in
01:20 45.9 °F 29.3 °F 23.43 in Calm   -999.0 mph 52% 0.00 in
01:35 45.7 °F 29.5 °F 23.42 in Calm   -999.0 mph 53% 0.00 in
01:50 45.5 °F 29.8 °F 23.42 in Calm   -999.0 mph 54% 0.00 in
02:05 45.9 °F 29.7 °F 23.41 in Calm   -999.0 mph 53% 0.00 in
02:20 46.2 °F 29.1 °F 23.41 in NNW 1.1 mph -999.0 mph 51% 0.00 in
02:36 46.0 °F 33.3 °F 23.41 in NNW 4.7 mph -999.0 mph 61% 0.00 in
02:51 45.7 °F 30.9 °F 23.41 in Calm   -999.0 mph 56% 0.00 in
03:06 45.0 °F 28.4 °F 23.40 in Calm   -999.0 mph 52% 0.00 in
03:21 45.0 °F 29.3 °F 23.40 in NNE 2.7 mph -999.0 mph 54% 0.00 in
03:37 44.8 °F 28.2 °F 23.40 in Calm   -999.0 mph 52% 0.00 in
03:52 44.8 °F 26.8 °F 23.40 in Calm   -999.0 mph 49% 0.00 in
04:07 43.9 °F 28.3 °F 23.40 in Calm   -999.0 mph 54% 0.00 in
04:22 43.2 °F 27.7 °F 23.39 in Calm   -999.0 mph 54% 0.00 in
04:37 41.9 °F 26.9 °F 23.39 in Calm   -999.0 mph 55% 0.00 in
04:53 41.5 °F 25.6 °F 23.39 in Calm   -999.0 mph 53% 0.00 in
05:08 41.4 °F 25.5 °F 23.39 in Calm   -999.0 mph 53% 0.00 in
05:23 40.5 °F 25.6 °F 23.39 in Calm   -999.0 mph 55% 0.00 in
05:38 39.7 °F 25.7 °F 23.39 in Calm   -999.0 mph 57% 0.00 in
05:53 39.6 °F 26.0 °F 23.40 in Calm   -999.0 mph 58% 0.00 in
06:09 38.7 °F 24.8 °F 23.40 in Calm   -999.0 mph 57% 0.00 in
06:24 38.1 °F 21.6 °F 23.40 in Calm   -999.0 mph 51% 0.00 in
06:39 37.6 °F 20.6 °F 23.40 in Calm   -999.0 mph 50% 0.00 in
06:54 37.8 °F 20.8 °F 23.40 in Calm   -999.0 mph 50% 0.00 in
07:10 37.8 °F 23.9 °F 23.40 in Calm   -999.0 mph 57% 0.00 in
07:25 38.5 °F 27.0 °F 23.41 in Calm   -999.0 mph 63% 0.00 in
07:40 41.2 °F 24.0 °F 23.40 in Calm   -999.0 mph 50% 0.00 in
07:55 42.3 °F 20.8 °F 23.40 in Calm   -999.0 mph 42% 0.00 in
08:10 46.2 °F 14.0 °F 23.41 in NW 3.7 mph -999.0 mph 27% 0.00 in
08:26 47.7 °F 19.3 °F 23.41 in ESE 3.2 mph -999.0 mph 32% 0.00 in
08:41 48.9 °F 20.3 °F 23.41 in North 1.7 mph -999.0 mph 32% 0.00 in
08:56 49.6 °F 20.9 °F 23.41 in NNW 3.7 mph -999.0 mph 32% 0.00 in
09:11 51.8 °F 16.1 °F 23.41 in South 1.7 mph -999.0 mph 24% 0.00 in
09:26 52.3 °F 22.5 °F 23.42 in NNW 3.7 mph -999.0 mph 31% 0.00 in
09:42 52.3 °F 24.0 °F 23.42 in NW 4.2 mph -999.0 mph 33% 0.00 in
09:57 52.3 °F 27.4 °F 23.42 in NW 5.3 mph -999.0 mph 38% 0.00 in
10:12 52.9 °F 26.0 °F 23.42 in NNW 3.7 mph -999.0 mph 35% 0.00 in
10:27 54.7 °F 26.1 °F 23.42 in NW 4.2 mph -999.0 mph 33% 0.00 in
10:42 56.3 °F 29.7 °F 23.42 in NNE 3.7 mph -999.0 mph 36% 0.00 in
10:58 58.5 °F 28.7 °F 23.42 in Calm   -999.0 mph 32% 0.00 in
11:13 59.4 °F 27.1 °F 23.42 in NNW 5.3 mph -999.0 mph 29% 0.00 in
11:29 58.6 °F 27.2 °F 23.42 in NNE 3.2 mph -999.0 mph 30% 0.00 in
11:44 59.0 °F 25.9 °F 23.43 in NW 5.3 mph -999.0 mph 28% 0.00 in
12:00 60.6 °F 22.6 °F 23.42 in NNE 3.2 mph -999.0 mph 23% 0.00 in
12:15 60.6 °F 22.6 °F 23.42 in NNW 3.7 mph -999.0 mph 23% 0.00 in
12:30 60.8 °F 19.4 °F 23.42 in WNW 1.1 mph -999.0 mph 20% 0.00 in
12:45 62.2 °F 18.1 °F 23.42 in ENE 4.2 mph -999.0 mph 18% 0.00 in
13:01 61.3 °F 19.9 °F 23.43 in NW 4.7 mph -999.0 mph 20% 0.00 in
13:17 60.8 °F 24.7 °F 23.43 in North 4.2 mph -999.0 mph 25% 0.00 in
13:32 61.7 °F 28.2 °F 23.42 in NW 5.8 mph -999.0 mph 28% 0.00 in
13:47 63.0 °F 27.6 °F 23.43 in NNW 5.3 mph -999.0 mph 26% 0.00 in
14:02 62.4 °F 23.0 °F 23.43 in NW 4.7 mph -999.0 mph 22% 0.00 in
14:18 60.4 °F 28.8 °F 23.42 in North 6.3 mph -999.0 mph 30% 0.00 in
14:33 61.2 °F 24.1 °F 23.42 in NW 5.3 mph -999.0 mph 24% 0.00 in
14:48 59.2 °F 32.2 °F 23.42 in NW 3.7 mph -999.0 mph 36% 0.00 in
15:03 59.9 °F 25.8 °F 23.41 in NNW 7.3 mph -999.0 mph 27% 0.00 in
15:18 59.4 °F 24.5 °F 23.41 in NW 5.3 mph -999.0 mph 26% 0.00 in
15:34 58.5 °F 28.0 °F 23.41 in WNW 2.2 mph -999.0 mph 31% 0.00 in
15:49 58.8 °F 27.4 °F 23.40 in NW 3.2 mph -999.0 mph 30% 0.00 in
16:04 59.0 °F 28.4 °F 23.40 in West 1.7 mph -999.0 mph 31% 0.00 in
16:19 57.2 °F 32.5 °F 23.40 in WNW 4.7 mph -999.0 mph 39% 0.00 in
16:34 58.1 °F 29.1 °F 23.40 in ENE 3.7 mph -999.0 mph 33% 0.00 in
16:50 55.0 °F 27.8 °F 23.40 in North 5.3 mph -999.0 mph 35% 0.00 in
17:05 55.0 °F 27.1 °F 23.40 in NE 4.2 mph -999.0 mph 34% 0.00 in
17:20 55.4 °F 33.3 °F 23.40 in NW 6.8 mph -999.0 mph 43% 0.00 in
17:35 55.2 °F 34.2 °F 23.40 in NNW 2.7 mph -999.0 mph 45% 0.00 in
17:51 55.6 °F 34.6 °F 23.40 in Calm   -999.0 mph 45% 0.00 in
18:06 54.9 °F 29.1 °F 23.40 in NW 8.9 mph -999.0 mph 37% 0.00 in
18:21 53.1 °F 31.8 °F 23.39 in NW 6.3 mph -999.0 mph 44% 0.00 in
18:36 47.3 °F 32.4 °F 23.40 in SSE 5.8 mph -999.0 mph 56% 0.00 in
18:52 45.5 °F 28.9 °F 23.40 in Calm   -999.0 mph 52% 0.00 in
19:07 44.2 °F 30.4 °F 23.40 in WNW 2.2 mph -999.0 mph 58% 0.00 in
19:22 42.4 °F 31.5 °F 23.39 in NW 4.2 mph -999.0 mph 65% 0.00 in
19:37 41.5 °F 32.1 °F 23.39 in WNW 2.7 mph -999.0 mph 69% 0.00 in
19:52 41.0 °F 29.8 °F 23.39 in NW 2.7 mph -999.0 mph 64% 0.00 in
20:08 41.0 °F 26.1 °F 23.39 in WNW 1.7 mph -999.0 mph 55% 0.00 in
20:23 40.6 °F 25.7 °F 23.39 in Calm   -999.0 mph 55% 0.00 in
20:38 40.5 °F 25.6 °F 23.39 in North 1.7 mph -999.0 mph 55% 0.00 in
20:53 40.3 °F 22.6 °F 23.39 in WNW 3.7 mph -999.0 mph 49% 0.00 in
21:09 40.1 °F 22.9 °F 23.40 in Calm   -999.0 mph 50% 0.00 in
21:24 39.4 °F 21.3 °F 23.40 in Calm   -999.0 mph 48% 0.00 in
21:39 39.0 °F 22.9 °F 23.40 in SSW 2.2 mph -999.0 mph 52% 0.00 in
21:54 39.4 °F 23.7 °F 23.40 in Calm   -999.0 mph 53% 0.00 in
22:09 39.9 °F 25.0 °F 23.41 in Calm   -999.0 mph 55% 0.00 in
22:25 40.5 °F 26.9 °F 23.41 in Calm   -999.0 mph 58% 0.00 in
22:40 40.1 °F 27.3 °F 23.41 in Calm   -999.0 mph 60% 0.00 in
22:55 41.0 °F 31.6 °F 23.40 in Calm   -999.0 mph 69% 0.00 in
23:10 41.0 °F 32.0 °F 23.40 in NW 1.7 mph -999.0 mph 70% 0.00 in
23:25 40.3 °F 31.6 °F 23.40 in Calm   -999.0 mph 71% 0.00 in
23:41 39.9 °F 31.3 °F 23.40 in Calm   -999.0 mph 71% 0.00 in
23:56 39.2 °F 30.6 °F 23.41 in Calm   -999.0 mph 71% 0.00 in
Big Bear CA Weather